createdAt,value
2022-11-27T00:01:10.908Z,12.17
2022-11-27T00:03:39.366Z,10.37
2022-11-27T00:06:08.221Z,15.47
2022-11-27T00:08:36.419Z,19.57
2022-11-27T00:11:11.181Z,10.27
2022-11-27T00:13:39.773Z,5.90
2022-11-27T00:16:08.946Z,7.53
2022-11-27T00:18:37.447Z,7.20
2022-11-27T00:21:07.824Z,8.57
2022-11-27T00:23:37.662Z,9.10
2022-11-27T00:26:09.427Z,8.93
2022-11-27T00:28:39.292Z,8.80
2022-11-27T00:31:09.345Z,8.17
2022-11-27T00:33:37.599Z,8.20
2022-11-27T00:36:06.966Z,7.23
2022-11-27T00:38:38.717Z,9.00
2022-11-27T00:41:08.245Z,11.83
2022-11-27T00:43:43.632Z,10.17
2022-11-27T00:46:14.292Z,9.00
2022-11-27T00:48:43.026Z,5.37
2022-11-27T00:51:12.957Z,8.47
2022-11-27T00:53:41.139Z,7.23
2022-11-27T00:56:10.140Z,8.03
2022-11-27T00:58:38.251Z,6.93
2022-11-27T01:01:08.147Z,5.90
2022-11-27T01:03:37.632Z,8.10
2022-11-27T01:06:06.503Z,6.43
2022-11-27T01:08:35.136Z,5.57
2022-11-27T01:11:03.363Z,5.43
2022-11-27T01:13:33.522Z,5.87
2022-11-27T01:16:02.016Z,5.63
2022-11-27T01:18:30.482Z,5.97
2022-11-27T01:20:59.911Z,5.70
2022-11-27T01:23:28.242Z,6.30
2022-11-27T01:25:59.044Z,4.90
2022-11-27T01:28:27.247Z,5.60
2022-11-27T01:30:55.394Z,5.97
2022-11-27T01:33:23.646Z,6.10
2022-11-27T01:35:56.326Z,5.60
2022-11-27T01:38:26.731Z,7.77
2022-11-27T01:40:58.919Z,5.73
2022-11-27T01:43:41.051Z,6.00
2022-11-27T01:46:15.500Z,8.87
2022-11-27T01:48:43.598Z,7.17
2022-11-27T01:51:11.710Z,9.30
2022-11-27T01:53:41.409Z,8.60
2022-11-27T01:56:09.730Z,8.20
2022-11-27T01:58:38.106Z,6.67
2022-11-27T02:01:07.764Z,8.20
2022-11-27T02:03:35.940Z,7.30
2022-11-27T02:06:04.033Z,7.30
2022-11-27T02:08:32.450Z,6.60
2022-11-27T02:11:05.685Z,6.37
2022-11-27T02:13:36.737Z,7.37
2022-11-27T02:16:17.669Z,5.60
2022-11-27T02:18:51.279Z,5.97
2022-11-27T02:21:23.908Z,7.03
2022-11-27T02:24:18.988Z,7.97
2022-11-27T02:27:12.111Z,8.57
2022-11-27T02:29:42.277Z,6.40
2022-11-27T02:32:13.490Z,6.63
2022-11-27T02:34:47.583Z,6.27
2022-11-27T02:37:19.992Z,6.83
2022-11-27T02:39:53.220Z,7.00
2022-11-27T02:42:22.436Z,7.57
2022-11-27T02:44:55.297Z,7.00
2022-11-27T02:47:23.795Z,7.20
2022-11-27T02:49:52.918Z,7.20
2022-11-27T02:52:21.761Z,6.60
2022-11-27T02:54:51.579Z,6.27
2022-11-27T02:57:20.995Z,5.77
2022-11-27T02:59:50.179Z,6.03
2022-11-27T03:02:22.453Z,5.63
2022-11-27T03:04:54.223Z,5.57
2022-11-27T03:07:28.879Z,6.07
2022-11-27T03:09:59.206Z,5.77
2022-11-27T03:12:27.697Z,5.10
2022-11-27T03:14:55.911Z,5.23
2022-11-27T03:17:36.071Z,5.67
2022-11-27T03:20:16.658Z,5.83
2022-11-27T03:22:45.303Z,6.23
2022-11-27T03:25:16.254Z,5.57
2022-11-27T03:27:52.023Z,6.63
2022-11-27T03:30:20.432Z,5.60
2022-11-27T03:32:50.408Z,4.70
2022-11-27T03:35:21.469Z,5.80
2022-11-27T03:37:49.929Z,6.87
2022-11-27T03:40:20.001Z,7.40
2022-11-27T03:42:55.733Z,6.40
2022-11-27T03:45:31.431Z,7.00
2022-11-27T03:48:09.052Z,7.03
2022-11-27T03:50:45.809Z,7.60
2022-11-27T03:53:20.391Z,5.87
2022-11-27T03:55:51.911Z,6.90
2022-11-27T03:58:24.628Z,5.97
2022-11-27T04:00:53.984Z,6.60
2022-11-27T04:03:26.370Z,6.47
2022-11-27T04:05:55.475Z,6.90
2022-11-27T04:08:24.216Z,6.90
2022-11-27T04:10:52.554Z,8.10
2022-11-27T04:13:21.114Z,7.13
2022-11-27T04:15:49.785Z,8.00
2022-11-27T04:18:18.640Z,7.33
2022-11-27T04:20:48.200Z,8.23
2022-11-27T04:23:16.270Z,8.40
2022-11-27T04:25:44.250Z,9.57
2022-11-27T04:28:12.422Z,8.27
2022-11-27T04:30:40.536Z,8.70
2022-11-27T04:33:08.708Z,8.67
2022-11-27T04:35:37.011Z,8.30
2022-11-27T04:38:06.401Z,8.37
2022-11-27T04:40:34.393Z,8.17
2022-11-27T04:43:02.443Z,8.50
2022-11-27T04:45:30.698Z,8.83
2022-11-27T04:47:58.943Z,9.93
2022-11-27T04:50:26.944Z,10.10
2022-11-27T04:52:55.196Z,8.90
2022-11-27T04:55:24.652Z,8.13
2022-11-27T04:57:52.659Z,8.40
2022-11-27T05:00:21.981Z,9.40
2022-11-27T05:02:50.524Z,9.73
2022-11-27T05:05:18.751Z,10.23
2022-11-27T05:07:46.910Z,10.63
2022-11-27T05:10:16.201Z,11.07
2022-11-27T05:12:45.578Z,9.73
2022-11-27T05:15:13.931Z,10.10
2022-11-27T05:17:42.012Z,8.80
2022-11-27T05:20:11.358Z,9.60
2022-11-27T05:22:42.091Z,9.03
2022-11-27T05:25:10.785Z,8.80
2022-11-27T05:27:38.828Z,9.20
2022-11-27T05:30:09.985Z,8.90
2022-11-27T05:32:38.867Z,9.30
2022-11-27T05:35:07.713Z,10.60
2022-11-27T05:37:35.719Z,9.97
2022-11-27T05:40:03.764Z,8.50
2022-11-27T05:42:31.750Z,10.67
2022-11-27T05:44:59.787Z,9.80
2022-11-27T05:47:29.146Z,9.60
2022-11-27T05:49:57.325Z,9.30
2022-11-27T05:52:25.315Z,9.53
2022-11-27T05:54:55.003Z,9.57
2022-11-27T05:57:23.715Z,10.60
2022-11-27T05:59:52.207Z,10.60
2022-11-27T06:02:26.355Z,11.63
2022-11-27T06:04:59.138Z,10.30
2022-11-27T06:07:27.611Z,10.50
2022-11-27T06:09:55.938Z,11.93
2022-11-27T06:12:24.550Z,13.10
2022-11-27T06:14:53.255Z,13.57
2022-11-27T06:17:21.876Z,12.23
2022-11-27T06:19:51.761Z,15.10
2022-11-27T06:22:21.716Z,11.70
2022-11-27T06:24:50.389Z,10.70
2022-11-27T06:27:18.650Z,10.03
2022-11-27T06:29:47.227Z,10.17
2022-11-27T06:32:15.772Z,10.80
2022-11-27T06:34:44.689Z,12.43
2022-11-27T06:37:14.090Z,10.20
2022-11-27T06:39:43.742Z,9.87
2022-11-27T06:42:11.804Z,10.63
2022-11-27T06:44:41.571Z,10.00
2022-11-27T06:47:09.718Z,10.50
2022-11-27T06:49:37.756Z,12.03
2022-11-27T06:52:06.093Z,9.10
2022-11-27T06:54:34.094Z,8.77
2022-11-27T06:57:03.496Z,8.87
2022-11-27T06:59:31.975Z,8.03
2022-11-27T07:02:00.136Z,7.67
2022-11-27T07:04:28.228Z,7.37
2022-11-27T07:06:56.290Z,9.00
2022-11-27T07:09:24.352Z,6.87
2022-11-27T07:11:52.464Z,6.50
2022-11-27T07:14:22.014Z,6.50
2022-11-27T07:16:50.101Z,6.30
2022-11-27T07:19:18.191Z,6.30
2022-11-27T07:21:46.250Z,7.80
2022-11-27T07:24:14.225Z,8.93
2022-11-27T07:26:42.335Z,7.50
2022-11-27T07:29:10.336Z,11.83
2022-11-27T07:31:39.815Z,9.90
2022-11-27T07:34:14.037Z,34.63
2022-11-27T07:36:44.122Z,33.13
2022-11-27T07:39:12.510Z,21.90
2022-11-27T07:41:40.786Z,10.07
2022-11-27T07:44:08.860Z,12.87
2022-11-27T07:46:36.917Z,8.80
2022-11-27T07:49:06.671Z,6.90
2022-11-27T07:51:34.732Z,5.90
2022-11-27T07:54:03.718Z,4.77
2022-11-27T07:56:32.036Z,5.77
2022-11-27T07:59:00.103Z,6.30
2022-11-27T08:01:28.498Z,5.40
2022-11-27T08:03:56.771Z,6.20
2022-11-27T08:06:31.503Z,6.13
2022-11-27T08:08:59.589Z,7.43
2022-11-27T08:11:30.143Z,6.90
2022-11-27T08:13:59.669Z,6.83
2022-11-27T08:16:28.390Z,6.90
2022-11-27T08:18:56.581Z,7.10
2022-11-27T08:21:26.422Z,7.70
2022-11-27T08:23:54.546Z,5.70
2022-11-27T08:26:23.113Z,5.67
2022-11-27T08:28:53.495Z,5.70
2022-11-27T08:31:21.629Z,6.70
2022-11-27T08:33:50.142Z,5.50
2022-11-27T08:36:18.646Z,4.10
2022-11-27T08:38:48.484Z,4.40
2022-11-27T08:41:16.620Z,3.80
2022-11-27T08:43:44.795Z,4.50
2022-11-27T08:46:13.072Z,4.27
2022-11-27T08:48:41.898Z,4.23
2022-11-27T08:51:11.412Z,3.90
2022-11-27T08:53:40.038Z,3.33
2022-11-27T08:56:12.428Z,3.17
2022-11-27T08:58:41.119Z,3.40
2022-11-27T09:01:11.307Z,4.60
2022-11-27T09:03:39.664Z,3.97
2022-11-27T09:06:09.563Z,3.67
2022-11-27T09:08:39.791Z,4.07
2022-11-27T09:11:09.893Z,3.90
2022-11-27T09:13:38.060Z,5.10
2022-11-27T09:16:06.966Z,4.03
2022-11-27T09:18:35.301Z,4.07
2022-11-27T09:21:05.271Z,3.90
2022-11-27T09:23:33.459Z,3.70
2022-11-27T09:26:02.625Z,3.90
2022-11-27T09:28:33.283Z,3.77
2022-11-27T09:31:04.024Z,3.30
2022-11-27T09:33:33.560Z,4.30
2022-11-27T09:36:06.083Z,3.50
2022-11-27T09:38:34.926Z,3.67
2022-11-27T09:41:10.267Z,3.00
2022-11-27T09:43:47.146Z,4.10
2022-11-27T09:46:21.577Z,3.03
2022-11-27T09:48:51.755Z,2.60
2022-11-27T09:51:27.050Z,3.07
2022-11-27T09:53:59.684Z,3.20
2022-11-27T09:56:28.181Z,2.77
2022-11-27T09:58:59.154Z,2.30
2022-11-27T10:01:36.468Z,2.10
2022-11-27T10:04:13.639Z,1.80
2022-11-27T10:06:51.960Z,2.57
2022-11-27T10:09:25.042Z,2.60
2022-11-27T10:11:56.848Z,2.23
2022-11-27T10:14:43.086Z,2.13
2022-11-27T10:17:14.132Z,1.83
2022-11-27T10:19:47.778Z,2.00
2022-11-27T10:22:21.427Z,2.30
2022-11-27T10:24:58.398Z,2.70
2022-11-27T10:27:32.205Z,2.80
2022-11-27T10:30:02.997Z,3.10
2022-11-27T10:32:54.716Z,3.60
2022-11-27T10:35:26.946Z,3.97
2022-11-27T10:38:01.047Z,2.93
2022-11-27T10:40:37.863Z,6.00
2022-11-27T10:43:11.568Z,4.37
2022-11-27T10:45:45.458Z,4.87
2022-11-27T10:48:14.422Z,4.47
2022-11-27T10:50:44.169Z,4.33
2022-11-27T10:53:15.963Z,3.73
2022-11-27T10:55:57.103Z,3.70
2022-11-27T10:58:29.238Z,3.73
2022-11-27T11:01:06.954Z,3.53
2022-11-27T11:03:36.072Z,3.30
2022-11-27T11:06:23.281Z,3.50
2022-11-27T11:09:02.669Z,2.97
2022-11-27T11:11:30.659Z,3.30
2022-11-27T11:13:58.972Z,3.17
2022-11-27T11:16:34.987Z,2.83
2022-11-27T11:19:03.688Z,3.43
2022-11-27T11:21:34.771Z,3.60
2022-11-27T11:24:04.256Z,3.83
2022-11-27T11:26:34.074Z,3.23
2022-11-27T11:29:05.774Z,3.50
2022-11-27T11:31:39.533Z,3.27
2022-11-27T11:34:16.780Z,3.63
2022-11-27T11:36:58.045Z,3.90
2022-11-27T11:39:27.982Z,3.70
2022-11-27T11:41:56.346Z,3.53
2022-11-27T11:44:30.101Z,4.40
2022-11-27T11:47:00.681Z,4.40
2022-11-27T11:49:29.826Z,3.80
2022-11-27T11:52:27.849Z,3.20
2022-11-27T11:55:01.871Z,3.40
2022-11-27T11:57:48.325Z,3.90
2022-11-27T12:00:18.089Z,3.40
2022-11-27T12:03:01.533Z,2.77
2022-11-27T12:05:37.261Z,2.73
2022-11-27T12:08:28.167Z,3.73
2022-11-27T12:11:02.127Z,4.50
2022-11-27T12:13:43.574Z,4.27
2022-11-27T12:16:17.303Z,3.80
2022-11-27T12:18:58.050Z,4.57
2022-11-27T12:21:31.028Z,4.43
2022-11-27T12:24:07.801Z,4.03
2022-11-27T12:26:44.505Z,4.27
2022-11-27T12:29:27.326Z,4.60
2022-11-27T12:32:11.971Z,4.63
2022-11-27T12:34:56.388Z,4.93
2022-11-27T12:37:35.279Z,5.00
2022-11-27T12:40:22.832Z,5.40
2022-11-27T12:42:56.917Z,5.73
2022-11-27T12:45:28.580Z,6.00
2022-11-27T12:47:59.783Z,5.50
2022-11-27T12:50:34.004Z,7.47
2022-11-27T12:53:11.664Z,7.60
2022-11-27T12:55:42.371Z,6.53
2022-11-27T12:58:14.668Z,7.77
2022-11-27T13:00:43.980Z,6.13
2022-11-27T13:03:17.929Z,6.27
2022-11-27T13:05:49.942Z,6.83
2022-11-27T13:08:23.150Z,7.73
2022-11-27T13:10:56.386Z,9.10
2022-11-27T13:13:29.139Z,7.90
2022-11-27T13:16:00.866Z,9.00
2022-11-27T13:18:32.773Z,6.17
2022-11-27T13:21:04.661Z,6.97
2022-11-27T13:23:35.162Z,8.30
2022-11-27T13:26:06.222Z,6.80
2022-11-27T13:28:39.950Z,6.57
2022-11-27T13:31:08.593Z,7.03
2022-11-27T13:33:38.962Z,6.63
2022-11-27T13:36:09.886Z,6.20
2022-11-27T13:38:42.592Z,7.47
2022-11-27T13:41:22.050Z,6.67
2022-11-27T13:43:50.913Z,6.63
2022-11-27T13:46:22.316Z,6.13
2022-11-27T13:48:56.065Z,6.57
2022-11-27T13:51:34.695Z,5.90
2022-11-27T13:54:10.792Z,6.10
2022-11-27T13:56:39.354Z,5.03
2022-11-27T13:59:16.319Z,5.53
2022-11-27T14:01:55.242Z,6.17
2022-11-27T14:04:23.294Z,5.90
2022-11-27T14:06:57.603Z,5.53
2022-11-27T14:09:35.314Z,5.70
2022-11-27T14:12:04.262Z,7.50
2022-11-27T14:14:32.453Z,5.90
2022-11-27T14:17:05.664Z,5.13
2022-11-27T14:19:35.807Z,5.63
2022-11-27T14:22:15.632Z,6.40
2022-11-27T14:24:46.625Z,6.33
2022-11-27T14:27:19.082Z,8.40
2022-11-27T14:29:47.327Z,7.40
2022-11-27T14:32:16.835Z,5.77
2022-11-27T14:34:45.182Z,5.27
2022-11-27T14:37:25.883Z,5.63
2022-11-27T14:39:53.998Z,6.13
2022-11-27T14:42:28.585Z,6.40
2022-11-27T14:45:07.489Z,6.50
2022-11-27T14:47:36.557Z,6.50
2022-11-27T14:50:05.002Z,6.90
2022-11-27T14:52:34.955Z,6.10
2022-11-27T14:55:03.876Z,6.77
2022-11-27T14:59:40.831Z,6.60
2022-11-27T15:02:18.867Z,7.33
2022-11-27T15:04:47.786Z,8.20
2022-11-27T15:07:25.104Z,6.90
2022-11-27T15:10:02.225Z,7.17
2022-11-27T15:12:42.509Z,8.10
2022-11-27T15:15:17.742Z,11.30
2022-11-27T15:17:48.271Z,6.40
2022-11-27T15:20:19.785Z,6.80
2022-11-27T15:22:51.306Z,6.73
2022-11-27T15:25:35.099Z,6.83
2022-11-27T15:28:03.263Z,6.27
2022-11-27T15:30:33.395Z,8.70
2022-11-27T15:33:01.807Z,7.03
2022-11-27T15:35:32.669Z,6.23
2022-11-27T15:38:04.537Z,7.57
2022-11-27T15:40:38.573Z,6.60
2022-11-27T15:43:12.112Z,6.50
2022-11-27T15:45:42.220Z,7.17
2022-11-27T15:48:16.132Z,8.50
2022-11-27T15:50:48.348Z,7.80
2022-11-27T15:53:19.804Z,7.20
2022-11-27T15:55:48.007Z,9.00
2022-11-27T15:58:17.102Z,14.20
2022-11-27T16:00:46.622Z,11.83
2022-11-27T16:03:15.660Z,10.23
2022-11-27T16:05:43.779Z,11.93
2022-11-27T16:08:11.879Z,8.80
2022-11-27T16:10:41.220Z,11.10
2022-11-27T16:13:09.352Z,10.10
2022-11-27T16:15:37.750Z,11.63
2022-11-27T16:18:08.412Z,10.97
2022-11-27T16:20:36.486Z,9.83
2022-11-27T16:23:04.643Z,10.00
2022-11-27T16:25:32.918Z,10.47
2022-11-27T16:28:03.307Z,9.50
2022-11-27T16:30:33.448Z,8.90
2022-11-27T16:33:02.943Z,9.23
2022-11-27T16:35:32.518Z,9.40
2022-11-27T16:38:00.810Z,10.50
2022-11-27T16:40:29.003Z,10.17
2022-11-27T16:42:57.111Z,12.27
2022-11-27T16:45:25.197Z,11.17
2022-11-27T16:47:53.283Z,9.93
2022-11-27T16:50:21.470Z,11.33
2022-11-27T16:52:54.590Z,11.33
2022-11-27T16:55:22.955Z,12.53
2022-11-27T16:57:51.602Z,11.90
2022-11-27T17:00:20.621Z,14.87
2022-11-27T17:02:48.790Z,10.63
2022-11-27T17:05:17.112Z,11.97
2022-11-27T17:07:45.342Z,11.47
2022-11-27T17:10:15.193Z,13.37
2022-11-27T17:12:43.241Z,13.00
2022-11-27T17:15:11.957Z,12.47
2022-11-27T17:17:41.472Z,11.40
2022-11-27T17:20:10.444Z,12.87
2022-11-27T17:22:38.734Z,13.57
2022-11-27T17:25:10.482Z,13.00
2022-11-27T17:27:40.113Z,11.80
2022-11-27T17:30:09.732Z,12.43
2022-11-27T17:32:38.197Z,13.53
2022-11-27T17:35:07.158Z,15.13
2022-11-27T17:37:35.307Z,12.50
2022-11-27T17:40:03.526Z,13.10
2022-11-27T17:42:31.655Z,13.80
2022-11-27T17:45:01.777Z,14.63
2022-11-27T17:47:30.044Z,15.03
2022-11-27T17:49:58.045Z,14.90
2022-11-27T17:52:26.163Z,13.60
2022-11-27T17:54:54.199Z,16.20
2022-11-27T17:57:22.364Z,13.60
2022-11-27T17:59:50.690Z,12.77
2022-11-27T18:02:20.248Z,8.07
2022-11-27T18:04:48.525Z,11.43
2022-11-27T18:07:17.373Z,12.87
2022-11-27T18:09:45.539Z,11.67
2022-11-27T18:12:13.877Z,13.20
2022-11-27T18:14:42.127Z,12.90
2022-11-27T18:17:10.215Z,14.10
2022-11-27T18:19:40.062Z,14.50
2022-11-27T18:22:09.273Z,11.83
2022-11-27T18:24:41.611Z,12.17
2022-11-27T18:27:09.977Z,11.30
2022-11-27T18:29:39.562Z,13.70
2022-11-27T18:32:08.454Z,13.17
2022-11-27T18:34:42.739Z,12.80
2022-11-27T18:37:11.490Z,14.30
2022-11-27T18:39:44.741Z,16.10
2022-11-27T18:42:13.221Z,15.00
2022-11-27T18:44:44.782Z,13.90
2022-11-27T18:47:14.012Z,15.37
2022-11-27T18:49:44.073Z,14.20
2022-11-27T18:52:12.911Z,12.27
2022-11-27T18:54:41.170Z,12.47
2022-11-27T18:57:11.098Z,12.80
2022-11-27T18:59:39.694Z,12.53
2022-11-27T19:02:09.264Z,13.33
2022-11-27T19:04:38.836Z,12.70
2022-11-27T19:07:08.524Z,10.77
2022-11-27T19:09:36.873Z,11.90
2022-11-27T19:12:05.740Z,11.50
2022-11-27T19:14:34.188Z,9.90
2022-11-27T19:17:02.428Z,11.60
2022-11-27T19:22:22.804Z,10.53
2022-11-27T19:24:50.907Z,11.47
2022-11-27T19:27:19.001Z,12.83
2022-11-27T19:29:47.283Z,12.83
2022-11-27T19:32:16.470Z,12.07
2022-11-27T19:34:44.742Z,12.10
2022-11-27T19:37:13.020Z,11.57
2022-11-27T19:39:42.476Z,10.93
2022-11-27T19:42:10.753Z,12.17
2022-11-27T19:44:39.321Z,12.13
2022-11-27T19:47:09.510Z,13.00
2022-11-27T19:49:37.643Z,12.93
2022-11-27T19:52:06.354Z,12.47
2022-11-27T19:54:34.396Z,12.87
2022-11-27T19:57:04.356Z,13.30
2022-11-27T19:59:32.788Z,12.47
2022-11-27T20:02:01.001Z,13.83
2022-11-27T20:04:29.219Z,14.90
2022-11-27T20:06:59.207Z,13.53
2022-11-27T20:09:27.260Z,14.77
2022-11-27T20:11:55.567Z,13.97
2022-11-27T20:14:25.098Z,15.07
2022-11-27T20:16:53.448Z,14.37
2022-11-27T20:19:21.576Z,14.63
2022-11-27T20:21:49.831Z,15.33
2022-11-27T20:24:18.223Z,14.33
2022-11-27T20:26:46.567Z,15.40
2022-11-27T20:29:15.778Z,12.30
2022-11-27T20:31:45.831Z,13.60
2022-11-27T20:34:19.368Z,13.70
2022-11-27T20:36:47.939Z,13.87
2022-11-27T20:39:21.319Z,12.77
2022-11-27T20:41:50.939Z,14.10
2022-11-27T20:44:19.103Z,13.90
2022-11-27T20:46:48.752Z,14.63
2022-11-27T20:49:18.380Z,13.30
2022-11-27T20:51:48.997Z,16.80
2022-11-27T20:54:17.509Z,17.07
2022-11-27T20:56:46.623Z,17.10
2022-11-27T20:59:14.898Z,14.47
2022-11-27T21:01:43.279Z,15.27
2022-11-27T21:04:19.718Z,15.57
2022-11-27T21:06:47.965Z,16.30
2022-11-27T21:09:16.140Z,16.20
2022-11-27T21:11:45.497Z,14.60
2022-11-27T21:14:15.430Z,16.00
2022-11-27T21:16:46.870Z,16.20
2022-11-27T21:19:20.835Z,14.90
2022-11-27T21:21:49.676Z,14.63
2022-11-27T21:24:18.764Z,14.93
2022-11-27T21:26:49.871Z,16.30
2022-11-27T21:29:24.681Z,13.37
2022-11-27T21:31:54.044Z,15.07
2022-11-27T21:34:23.754Z,15.70
2022-11-27T21:36:51.916Z,15.40
2022-11-27T21:39:21.443Z,14.67
2022-11-27T21:41:51.172Z,13.60
2022-11-27T21:44:19.617Z,12.83
2022-11-27T21:46:48.203Z,10.70
2022-11-27T21:49:17.990Z,12.97
2022-11-27T21:51:47.503Z,13.43
2022-11-27T21:54:16.180Z,14.43
2022-11-27T21:56:44.437Z,15.40
2022-11-27T21:59:15.038Z,17.13
2022-11-27T22:01:45.911Z,16.73
2022-11-27T22:04:14.187Z,17.00
2022-11-27T22:06:43.464Z,15.60
2022-11-27T22:09:15.603Z,18.20
2022-11-27T22:11:45.073Z,15.60
2022-11-27T22:14:14.353Z,15.70
2022-11-27T22:16:45.861Z,17.37
2022-11-27T22:19:17.074Z,15.87
2022-11-27T22:21:45.959Z,16.03
2022-11-27T22:24:19.397Z,16.93
2022-11-27T22:26:48.747Z,16.20
2022-11-27T22:29:16.998Z,17.30
2022-11-27T22:31:45.121Z,16.43
2022-11-27T22:34:13.208Z,16.77
2022-11-27T22:36:41.587Z,15.63
2022-11-27T22:39:10.068Z,15.33
2022-11-27T22:41:41.238Z,17.43
2022-11-27T22:44:10.112Z,14.77
2022-11-27T22:46:40.549Z,14.47
2022-11-27T22:49:09.056Z,14.17
2022-11-27T22:51:37.937Z,15.80
2022-11-27T22:54:08.103Z,14.77
2022-11-27T22:56:36.870Z,15.60
2022-11-27T22:59:31.188Z,15.27
2022-11-27T23:01:55.197Z,15.23
2022-11-27T23:04:23.220Z,13.43
2022-11-27T23:06:51.410Z,14.37
2022-11-27T23:09:20.093Z,16.17
2022-11-27T23:11:49.230Z,14.60
2022-11-27T23:14:18.760Z,15.60
2022-11-27T23:16:47.166Z,13.20
2022-11-27T23:19:15.302Z,14.13
2022-11-27T23:21:43.373Z,15.07
2022-11-27T23:24:13.298Z,13.47
2022-11-27T23:26:41.381Z,15.37
2022-11-27T23:29:09.943Z,14.60
2022-11-27T23:31:39.951Z,15.50
2022-11-27T23:34:11.657Z,14.10
2022-11-27T23:36:39.978Z,15.03
2022-11-27T23:39:09.713Z,16.30
2022-11-27T23:41:37.993Z,14.90
2022-11-27T23:44:06.498Z,16.80
2022-11-27T23:46:34.598Z,14.83
2022-11-27T23:49:04.239Z,14.20
2022-11-27T23:51:33.612Z,16.43
2022-11-27T23:54:02.335Z,12.97
2022-11-27T23:56:32.212Z,16.80
2022-11-27T23:59:01.436Z,15.03
